Time;durP1;ratioP1;P1;durP2;ratioP2;P2;SDS_P1;SDS_P2;PMS_P1;PMS_P2;Temp;Humidity;BMP_temperature;BMP_pressure;BME280_temperature;BME280_humidity;BME280_pressure;Samples;Min_cycle;Max_cycle;Signal;HPM_P1;HPM_P2
2022/07/21 00:01:03;;;;;;;10.73;5.22;;;20.70;99.90;;;;;;5054067;28;20057;-77
2022/07/21 00:03:30;;;;;;;9.00;5.18;;;20.60;99.90;;;;;;5054321;28;20053;-77
2022/07/21 00:05:57;;;;;;;9.32;4.95;;;20.60;99.90;;;;;;5052312;28;20057;-78
2022/07/21 00:08:25;;;;;;;7.97;5.22;;;20.60;99.90;;;;;;5053760;28;20060;-77
2022/07/21 00:10:52;;;;;;;9.55;5.85;;;20.50;99.90;;;;;;5053689;28;20052;-77
2022/07/21 00:13:19;;;;;;;9.00;5.00;;;20.50;99.90;;;;;;5052193;28;20432;-77
2022/07/21 00:15:47;;;;;;;12.13;5.82;;;20.40;99.90;;;;;;5053269;28;20512;-77
2022/07/21 00:18:14;;;;;;;10.27;6.13;;;20.40;99.90;;;;;;5052549;28;20106;-77
2022/07/21 00:20:41;;;;;;;8.75;6.20;;;20.40;99.90;;;;;;5052957;28;20489;-77
2022/07/21 00:23:08;;;;;;;11.15;5.30;;;20.40;99.90;;;;;;5052162;28;20448;-77
2022/07/21 00:25:36;;;;;;;10.32;5.60;;;20.40;99.90;;;;;;5052656;28;20447;-77
2022/07/21 00:28:04;;;;;;;11.40;5.95;;;20.40;99.90;;;;;;5053202;28;20057;-78
2022/07/21 00:30:32;;;;;;;6.82;5.22;;;20.40;99.90;;;;;;5052430;28;20052;-77
2022/07/21 00:32:59;;;;;;;11.68;5.57;;;20.50;99.90;;;;;;5052727;28;20045;-78
2022/07/21 00:35:26;;;;;;;10.68;5.00;;;20.50;99.90;;;;;;5052181;28;20053;-78
2022/07/21 00:37:53;;;;;;;9.55;5.53;;;20.50;99.90;;;;;;5053213;28;20493;-77
2022/07/21 00:40:19;;;;;;;8.90;5.45;;;20.50;99.90;;;;;;5051183;28;20061;-77
2022/07/21 00:42:48;;;;;;;9.93;5.68;;;20.50;99.90;;;;;;5052801;28;20467;-77
2022/07/21 00:45:15;;;;;;;10.43;5.35;;;20.40;99.90;;;;;;5052440;28;20044;-77
2022/07/21 00:47:42;;;;;;;9.95;5.13;;;20.40;99.90;;;;;;5052686;28;20453;-77
2022/07/21 00:50:11;;;;;;;11.93;6.88;;;20.50;99.90;;;;;;5051937;28;20110;-77
2022/07/21 00:52:39;;;;;;;11.18;6.18;;;20.50;99.90;;;;;;5051053;28;20052;-78
2022/07/21 00:55:09;;;;;;;11.95;6.40;;;20.50;99.90;;;;;;5051166;28;20095;-77
2022/07/21 00:57:36;;;;;;;11.43;6.28;;;20.50;99.90;;;;;;5053014;28;20447;-77
2022/07/21 01:00:05;;;;;;;9.35;5.93;;;20.50;99.90;;;;;;5052103;28;20106;-77
2022/07/21 01:02:35;;;;;;;10.55;6.82;;;20.50;99.90;;;;;;5052416;28;20049;-77
2022/07/21 01:05:02;;;;;;;;;;;20.50;99.90;;;;;;5053667;28;20053;-77
2022/07/21 01:07:29;;;;;;;14.82;7.25;;;20.40;99.90;;;;;;5053095;28;19927;-76
2022/07/21 01:09:57;;;;;;;11.77;6.90;;;20.40;99.90;;;;;;5051973;28;20049;-76
2022/07/21 01:12:24;;;;;;;12.50;7.75;;;20.30;99.90;;;;;;5051996;28;20053;-78
2022/07/21 01:14:51;;;;;;;12.80;7.57;;;20.30;99.90;;;;;;5050623;28;20481;-78
2022/07/21 01:17:19;;;;;;;14.65;8.30;;;20.20;99.90;;;;;;5052811;28;20111;-78
2022/07/21 01:19:47;;;;;;;14.05;8.23;;;20.10;99.90;;;;;;5053741;28;20084;-78
2022/07/21 01:22:15;;;;;;;13.60;8.13;;;20.10;99.90;;;;;;5052813;28;20118;-77
2022/07/21 01:24:42;;;;;;;12.85;8.27;;;20.00;99.90;;;;;;5052193;28;20052;-76
2022/07/21 01:27:09;;;;;;;14.93;8.13;;;19.90;99.90;;;;;;5052854;28;20056;-75
2022/07/21 01:29:36;;;;;;;17.20;8.90;;;19.90;99.90;;;;;;5053810;28;20114;-76
2022/07/21 01:32:04;;;;;;;14.45;8.73;;;19.80;99.90;;;;;;5053466;28;20114;-76
2022/07/21 01:34:31;;;;;;;12.80;8.75;;;19.80;99.90;;;;;;5052145;28;20091;-77
2022/07/21 01:36:58;;;;;;;11.82;8.68;;;19.70;99.90;;;;;;5051331;28;20072;-76
2022/07/21 01:42:10;;;;;;;13.13;8.48;;;19.60;99.90;;;;;;5052768;28;20056;-77
2022/07/21 01:44:37;;;;;;;16.00;9.15;;;19.60;99.90;;;;;;5050966;28;20045;-77
2022/07/21 01:47:04;;;;;;;12.15;8.57;;;19.60;99.90;;;;;;5051439;28;20056;-77
2022/07/21 01:49:30;;;;;;;14.48;9.82;;;19.60;99.90;;;;;;5052586;28;20443;-76
2022/07/21 01:51:57;;;;;;;13.88;9.43;;;19.60;99.90;;;;;;5052780;28;20493;-77
2022/07/21 01:54:26;;;;;;;14.93;9.65;;;19.50;99.90;;;;;;5054980;28;20500;-77
2022/07/21 01:56:53;;;;;;;14.13;8.63;;;19.50;99.90;;;;;;5054466;28;20107;-77
2022/07/21 01:59:20;;;;;;;16.48;9.30;;;19.50;99.90;;;;;;5054826;28;20087;-77
2022/07/21 02:01:47;;;;;;;19.05;10.55;;;19.40;99.90;;;;;;5055966;28;20052;-77
2022/07/21 02:04:14;;;;;;;14.23;9.93;;;19.40;99.90;;;;;;5055832;28;20416;-78
2022/07/21 02:06:41;;;;;;;16.13;9.82;;;19.40;99.90;;;;;;5056353;28;20053;-78
2022/07/21 02:09:08;;;;;;;14.68;10.43;;;19.40;99.90;;;;;;5054652;28;20063;-77
2022/07/21 02:11:36;;;;;;;16.10;10.35;;;19.30;99.90;;;;;;5055761;28;20052;-77
2022/07/21 02:14:03;;;;;;;23.40;11.02;;;19.30;99.90;;;;;;5055871;28;20049;-78
2022/07/21 02:16:30;;;;;;;17.35;11.57;;;19.30;99.90;;;;;;5056145;28;20456;-78
2022/07/21 02:18:57;;;;;;;18.52;10.77;;;19.30;99.90;;;;;;5054416;28;20555;-77
2022/07/21 02:21:24;;;;;;;19.23;11.45;;;19.30;99.90;;;;;;5054838;28;20057;-77
2022/07/21 02:23:51;;;;;;;17.30;11.98;;;19.30;99.90;;;;;;5055866;28;20041;-78
2022/07/21 02:26:18;;;;;;;14.95;11.23;;;19.20;99.90;;;;;;5055368;28;20049;-78
2022/07/21 02:28:46;;;;;;;19.08;10.85;;;19.20;99.90;;;;;;5055833;28;20099;-76
2022/07/21 02:31:13;;;;;;;19.52;12.68;;;19.20;99.90;;;;;;5056164;28;20049;-77
2022/07/21 02:33:40;;;;;;;16.77;11.75;;;19.10;99.90;;;;;;5054522;28;20049;-76
2022/07/21 02:36:08;;;;;;;18.17;11.73;;;19.10;99.90;;;;;;5054246;28;20049;-76
2022/07/21 02:38:35;;;;;;;14.60;11.85;;;19.00;99.90;;;;;;5055555;28;20085;-77
2022/07/21 02:41:02;;;;;;;18.70;12.15;;;19.00;99.90;;;;;;5071243;28;20053;-76
2022/07/21 02:43:29;;;;;;;18.10;12.32;;;19.00;99.90;;;;;;5055871;28;20049;-77
2022/07/21 02:45:57;;;;;;;18.52;11.70;;;18.90;99.90;;;;;;5055024;28;20484;-75
2022/07/21 02:48:24;;;;;;;17.60;12.05;;;18.90;99.90;;;;;;5054334;28;20515;-77
2022/07/21 02:50:51;;;;;;;18.40;12.05;;;18.90;99.90;;;;;;5054156;28;20053;-77
2022/07/21 02:53:20;;;;;;;17.42;12.50;;;18.90;99.90;;;;;;5054194;28;20103;-77
2022/07/21 02:55:47;;;;;;;19.90;13.15;;;18.90;99.90;;;;;;5054007;28;20555;-77
2022/07/21 02:58:16;;;;;;;19.13;12.70;;;18.90;99.90;;;;;;5054993;28;20111;-76
2022/07/21 03:00:45;;;;;;;19.23;12.57;;;18.90;99.90;;;;;;5053374;28;20067;-76
2022/07/21 03:03:13;;;;;;;16.80;11.60;;;18.80;99.90;;;;;;5054254;28;20497;-76
2022/07/21 03:05:40;;;;;;;19.20;13.52;;;18.90;99.90;;;;;;5055212;28;20045;-77
2022/07/21 03:08:09;;;;;;;20.50;13.93;;;18.90;99.90;;;;;;5053872;28;20049;-76
2022/07/21 03:10:37;;;;;;;20.13;13.57;;;18.90;99.90;;;;;;5053367;28;20106;-77
2022/07/21 03:13:04;;;;;;;20.33;13.55;;;19.00;99.90;;;;;;5053411;28;20075;-77
2022/07/21 03:15:32;;;;;;;20.55;14.27;;;19.00;99.90;;;;;;5054561;28;20056;-77
2022/07/21 03:17:59;;;;;;;19.90;13.15;;;19.00;99.90;;;;;;5054330;28;20505;-77
2022/07/21 03:20:30;;;;;;;21.88;12.32;;;19.00;99.90;;;;;;5055084;28;20052;-76
2022/07/21 03:22:57;;;;;;;20.02;13.35;;;19.00;99.90;;;;;;5053113;28;20111;-77
2022/07/21 03:25:25;;;;;;;24.65;14.05;;;19.00;99.90;;;;;;5054540;28;20053;-77
2022/07/21 03:27:51;;;;;;;21.45;14.32;;;19.00;99.90;;;;;;5054859;28;20955;-77
2022/07/21 03:30:19;;;;;;;18.15;12.82;;;19.00;99.90;;;;;;5052801;28;20107;-76
2022/07/21 03:32:46;;;;;;;19.05;13.50;;;19.10;99.90;;;;;;5053362;28;20056;-76
2022/07/21 03:35:13;;;;;;;19.60;14.27;;;19.10;99.90;;;;;;5053323;28;20496;-76
2022/07/21 03:37:46;;;;;;;22.15;15.15;;;19.10;99.90;;;;;;5056266;28;20098;-76
2022/07/21 03:40:15;;;;;;;21.00;14.50;;;19.10;99.90;;;;;;5058769;28;20069;-76
2022/07/21 03:42:42;;;;;;;17.42;13.07;;;19.10;99.90;;;;;;5052762;28;20056;-77
2022/07/21 03:45:10;;;;;;;25.90;14.32;;;19.10;99.90;;;;;;5054056;28;20604;-77
2022/07/21 03:47:38;;;;;;;20.67;14.57;;;19.10;99.90;;;;;;5052920;28;20049;-76
2022/07/21 03:50:07;;;;;;;22.85;15.15;;;19.10;99.90;;;;;;5051401;28;20053;-77
2022/07/21 03:52:34;;;;;;;19.13;14.20;;;19.00;99.90;;;;;;5052759;28;20194;-77
2022/07/21 03:55:14;;;;;;;21.45;14.68;;;19.00;99.90;;;;;;5052377;28;20083;-77
2022/07/21 03:57:43;;;;;;;23.23;15.73;;;19.00;99.90;;;;;;5053691;28;20452;-77
2022/07/21 04:00:13;;;;;;;20.10;14.60;;;19.00;99.90;;;;;;5053701;28;20107;-77
2022/07/21 04:02:42;;;;;;;19.80;15.40;;;19.00;99.90;;;;;;5052853;28;20048;-77
2022/07/21 04:05:10;;;;;;;23.17;16.08;;;19.00;99.90;;;;;;5053127;28;20049;-77
2022/07/21 04:07:38;;;;;;;22.30;15.82;;;18.90;99.90;;;;;;5052651;28;20053;-77
2022/07/21 04:10:08;;;;;;;21.48;15.70;;;18.90;99.90;;;;;;5052386;28;20115;-77
2022/07/21 04:12:35;;;;;;;21.98;16.55;;;18.90;99.90;;;;;;5051544;28;20060;-77
2022/07/21 04:15:02;;;;;;;22.35;16.17;;;19.00;99.90;;;;;;5053088;28;20093;-78
2022/07/21 04:17:29;;;;;;;22.70;15.93;;;19.00;99.90;;;;;;5052102;28;20134;-77
2022/07/21 04:19:56;;;;;;;21.38;16.45;;;18.90;99.90;;;;;;5052062;28;20078;-77
2022/07/21 04:22:23;;;;;;;25.42;17.45;;;18.90;99.90;;;;;;5052447;28;20057;-77
2022/07/21 04:24:50;;;;;;;32.70;18.58;;;18.90;99.90;;;;;;5053231;28;20088;-77
2022/07/21 04:27:18;;;;;;;25.90;17.92;;;19.00;99.90;;;;;;5053493;28;20107;-77
2022/07/21 04:29:45;;;;;;;28.25;17.77;;;19.00;99.90;;;;;;5053524;28;20114;-79
2022/07/21 04:32:12;;;;;;;28.13;19.25;;;19.00;99.90;;;;;;5052775;28;20055;-76
2022/07/21 04:34:39;;;;;;;24.98;18.42;;;19.00;99.90;;;;;;5052832;28;20053;-77
2022/07/21 04:37:06;;;;;;;30.13;17.83;;;19.00;99.90;;;;;;5047849;28;20119;-75
2022/07/21 04:39:32;;;;;;;22.40;17.25;;;19.00;99.90;;;;;;5041709;28;20095;-76
2022/07/21 04:41:59;;;;;;;22.42;16.27;;;19.10;99.90;;;;;;5048743;28;20382;-75
2022/07/21 04:44:28;;;;;;;24.88;17.95;;;19.20;99.90;;;;;;5041141;28;20045;-76
2022/07/21 04:46:54;;;;;;;21.23;17.13;;;19.20;99.90;;;;;;5046124;28;20048;-75
2022/07/21 04:49:21;;;;;;;20.75;15.15;;;19.30;99.90;;;;;;5041888;28;20095;-77
2022/07/21 04:51:48;;;;;;;22.52;17.13;;;19.40;99.90;;;;;;5059870;28;20049;-77
2022/07/21 04:54:16;;;;;;;25.95;19.33;;;19.40;99.90;;;;;;5049509;28;20110;-77
2022/07/21 04:56:43;;;;;;;26.30;20.33;;;19.40;99.90;;;;;;5046499;28;20456;-76
2022/07/21 04:59:11;;;;;;;28.17;19.02;;;19.40;99.90;;;;;;5044863;28;20098;-77
2022/07/21 05:01:39;;;;;;;24.17;19.30;;;19.40;99.90;;;;;;5059518;28;20159;-77
2022/07/21 05:04:07;;;;;;;26.17;19.85;;;19.40;99.90;;;;;;5046360;28;20122;-76
2022/07/21 05:06:34;;;;;;;29.67;20.27;;;19.40;99.90;;;;;;5048086;28;20146;-75
2022/07/21 05:09:01;;;;;;;27.45;19.25;;;19.50;99.90;;;;;;5041431;28;20121;-76
2022/07/21 05:11:28;;;;;;;26.67;19.85;;;19.50;99.90;;;;;;5059797;28;20045;-77
2022/07/21 05:13:55;;;;;;;26.83;20.17;;;19.60;99.90;;;;;;5060809;28;20049;-76
2022/07/21 05:16:22;;;;;;;25.48;18.75;;;19.80;99.90;;;;;;5058684;28;20045;-76
2022/07/21 05:18:50;;;;;;;24.52;19.10;;;19.80;99.90;;;;;;5042446;28;20451;-77
2022/07/21 05:21:17;;;;;;;24.05;18.85;;;19.80;99.90;;;;;;5049140;28;20049;-77
2022/07/21 05:23:45;;;;;;;22.25;17.77;;;19.80;99.90;;;;;;5047439;28;20412;-78
2022/07/21 05:26:13;;;;;;;24.40;18.73;;;19.80;99.90;;;;;;5046579;28;20099;-77
2022/07/21 05:28:40;;;;;;;26.02;18.73;;;19.80;99.90;;;;;;5045983;28;20124;-77
2022/07/21 05:31:08;;;;;;;25.70;18.60;;;19.80;99.90;;;;;;5048773;28;20135;-76
2022/07/21 05:33:35;;;;;;;22.58;18.48;;;19.80;99.90;;;;;;5046092;28;20053;-76
2022/07/21 05:36:03;;;;;;;23.80;19.13;;;19.90;99.90;;;;;;5070052;28;20060;-76
2022/07/21 05:38:30;;;;;;;25.83;18.30;;;19.80;99.90;;;;;;5051301;28;20041;-76
2022/07/21 05:40:59;;;;;;;25.60;18.77;;;19.80;99.90;;;;;;5048902;28;20485;-75
2022/07/21 05:43:26;;;;;;;22.92;17.02;;;19.80;99.90;;;;;;5049807;28;20045;-75
2022/07/21 05:45:53;;;;;;;22.23;17.00;;;19.80;99.90;;;;;;5050077;28;20041;-76
2022/07/21 05:48:20;;;;;;;20.42;16.85;;;19.80;99.90;;;;;;5048038;28;20045;-76
2022/07/21 05:50:47;;;;;;;22.70;18.52;;;19.90;99.90;;;;;;5047488;28;20107;-73
2022/07/21 05:53:15;;;;;;;18.90;15.80;;;19.90;99.90;;;;;;5048885;28;20056;-75
2022/07/21 05:55:42;;;;;;;20.52;17.52;;;19.90;99.90;;;;;;5043551;28;20052;-75
2022/07/21 05:58:09;;;;;;;23.75;17.55;;;19.90;99.90;;;;;;5047244;28;20048;-75
2022/07/21 06:00:36;;;;;;;23.00;17.20;;;20.00;99.90;;;;;;5037286;28;20081;-74
2022/07/21 06:03:03;;;;;;;21.38;17.25;;;20.00;99.90;;;;;;4999055;28;20103;-76
2022/07/21 06:05:30;;;;;;;21.02;16.83;;;19.90;99.90;;;;;;5054411;28;20052;-76
2022/07/21 06:07:57;;;;;;;22.95;17.75;;;19.90;99.90;;;;;;5054377;28;20143;-75
2022/07/21 06:10:25;;;;;;;18.88;16.80;;;20.00;99.90;;;;;;5052482;28;20048;-76
2022/07/21 06:12:52;;;;;;;21.00;17.10;;;20.00;99.90;;;;;;5056086;28;20048;-76
2022/07/21 06:15:20;;;;;;;19.42;16.35;;;20.00;99.90;;;;;;5054631;28;20049;-76
2022/07/21 06:17:47;;;;;;;19.67;16.67;;;19.90;99.90;;;;;;5055650;28;20492;-77
2022/07/21 06:20:14;;;;;;;20.63;16.27;;;19.90;99.90;;;;;;5055812;28;20049;-77
2022/07/21 06:22:41;;;;;;;16.98;14.95;;;19.90;99.90;;;;;;5054771;28;20119;-76
2022/07/21 06:25:09;;;;;;;20.88;16.80;;;19.90;99.90;;;;;;5052669;28;20045;-75
2022/07/21 06:27:37;;;;;;;18.50;15.18;;;19.90;99.90;;;;;;5032113;28;20049;-75
2022/07/21 06:30:06;;;;;;;20.20;15.75;;;19.90;99.90;;;;;;5041125;28;20048;-76
2022/07/21 06:32:32;;;;;;;20.13;15.02;;;19.90;99.90;;;;;;5041735;28;20301;-73
2022/07/21 06:34:59;;;;;;;19.92;16.33;;;19.90;99.90;;;;;;5053550;28;20049;-77
2022/07/21 06:37:26;;;;;;;20.02;15.98;;;19.90;99.90;;;;;;5054206;28;20060;-76
2022/07/21 06:39:53;;;;;;;21.40;17.17;;;20.00;99.90;;;;;;5055002;28;20106;-76
2022/07/21 06:42:20;;;;;;;22.20;17.35;;;19.90;99.90;;;;;;5054421;28;20468;-76
2022/07/21 06:44:48;;;;;;;22.15;17.13;;;19.90;99.90;;;;;;5054644;28;20509;-76
2022/07/21 06:47:15;;;;;;;24.25;18.90;;;19.90;99.90;;;;;;5053447;28;20482;-77
2022/07/21 06:49:41;;;;;;;21.55;16.55;;;19.80;99.90;;;;;;5054544;28;20489;-75
2022/07/21 06:52:08;;;;;;;21.05;17.73;;;19.80;99.90;;;;;;5053803;28;20571;-76
2022/07/21 06:54:35;;;;;;;26.75;17.60;;;19.80;99.90;;;;;;5060585;28;20148;-76
2022/07/21 06:57:02;;;;;;;22.55;17.35;;;19.80;99.90;;;;;;5071412;28;20057;-76
2022/07/21 06:59:29;;;;;;;21.10;16.90;;;19.90;99.90;;;;;;5055134;28;20107;-76
2022/07/21 07:01:58;;;;;;;22.52;17.73;;;19.90;99.90;;;;;;5054304;28;20048;-76
2022/07/21 07:04:25;;;;;;;20.88;18.08;;;20.00;99.90;;;;;;5054572;28;20060;-76
2022/07/21 07:06:54;;;;;;;21.65;16.83;;;20.10;99.90;;;;;;5053086;28;20041;-76
2022/07/21 07:09:34;;;;;;;22.65;18.10;;;20.10;99.90;;;;;;5052161;28;20497;-76
2022/07/21 07:12:03;;;;;;;34.53;18.83;;;20.20;99.90;;;;;;5074382;28;20090;-76
2022/07/21 07:14:30;;;;;;;21.27;17.80;;;20.20;99.90;;;;;;5073761;28;20135;-77
2022/07/21 07:16:59;;;;;;;20.38;17.00;;;20.20;99.90;;;;;;5053139;28;20049;-75
2022/07/21 07:19:26;;;;;;;22.73;18.73;;;20.30;99.90;;;;;;5053661;28;20057;-74
2022/07/21 07:21:53;;;;;;;23.17;18.83;;;20.30;99.90;;;;;;5052381;28;20102;-75
2022/07/21 07:24:20;;;;;;;25.55;19.90;;;20.40;99.90;;;;;;5054589;28;20106;-77
2022/07/21 07:26:47;;;;;;;25.77;20.70;;;20.40;99.90;;;;;;5052810;28;20485;-76
2022/07/21 07:29:14;;;;;;;23.52;18.85;;;20.40;99.90;;;;;;5052541;28;20115;-77
2022/07/21 07:31:41;;;;;;;19.17;17.10;;;20.50;99.90;;;;;;5053353;28;20048;-77
2022/07/21 07:34:10;;;;;;;22.58;19.45;;;20.60;99.90;;;;;;5054055;28;20065;-77
2022/07/21 07:36:37;;;;;;;23.52;19.55;;;20.60;99.90;;;;;;5052198;28;20045;-77
2022/07/21 07:39:04;;;;;;;24.75;20.48;;;20.60;99.90;;;;;;5052993;28;20057;-77
2022/07/21 07:41:31;;;;;;;27.52;20.98;;;20.60;99.90;;;;;;5052666;28;20447;-77
2022/07/21 07:43:59;;;;;;;24.35;19.67;;;20.60;99.90;;;;;;5052878;28;20572;-77
2022/07/21 07:46:27;;;;;;;24.67;20.10;;;20.70;99.90;;;;;;5054479;28;20045;-76
2022/07/21 07:48:53;;;;;;;22.60;19.83;;;20.70;99.90;;;;;;5052289;28;20122;-76
2022/07/21 07:51:22;;;;;;;22.88;19.45;;;20.70;99.90;;;;;;5053994;28;20051;-77
2022/07/21 07:53:49;;;;;;;22.40;19.40;;;20.80;99.90;;;;;;5051291;28;20063;-77
2022/07/21 07:56:16;;;;;;;23.48;19.48;;;20.80;99.90;;;;;;5053771;28;20100;-77
2022/07/21 07:58:43;;;;;;;21.75;18.75;;;20.90;99.90;;;;;;5053305;28;20056;-77
2022/07/21 08:01:10;;;;;;;20.02;17.92;;;20.90;99.90;;;;;;5052730;28;20057;-76
2022/07/21 08:03:37;;;;;;;19.90;17.77;;;20.90;99.90;;;;;;5053309;28;20098;-76
2022/07/21 08:06:05;;;;;;;21.42;19.10;;;21.00;99.90;;;;;;5052459;28;20049;-76
2022/07/21 08:08:34;;;;;;;22.45;18.80;;;21.00;99.90;;;;;;5044226;28;20140;-75
2022/07/21 08:11:01;;;;;;;26.73;18.38;;;21.00;99.90;;;;;;5053647;28;20056;-76
2022/07/21 08:13:28;;;;;;;22.92;19.27;;;21.00;99.90;;;;;;5052523;28;20045;-76
2022/07/21 08:15:55;;;;;;;23.48;18.77;;;21.10;99.90;;;;;;5041032;28;20107;-77
2022/07/21 08:18:21;;;;;;;19.92;17.08;;;21.20;99.90;;;;;;5069579;28;20052;-76
2022/07/21 08:20:49;;;;;;;20.35;18.10;;;21.20;99.90;;;;;;5054075;28;20049;-77
2022/07/21 08:23:17;;;;;;;20.65;17.33;;;21.30;99.90;;;;;;5053835;28;20125;-76
2022/07/21 08:25:45;;;;;;;20.42;16.88;;;21.30;99.90;;;;;;5054430;28;20045;-78
2022/07/21 08:28:12;;;;;;;22.70;18.05;;;21.40;99.90;;;;;;5056909;28;20082;-76
2022/07/21 08:30:39;;;;;;;20.80;18.42;;;21.40;99.90;;;;;;5051969;28;20448;-76
2022/07/21 08:33:06;;;;;;;20.85;17.30;;;21.40;99.90;;;;;;5052349;28;20562;-77
2022/07/21 08:35:34;;;;;;;22.40;17.88;;;21.40;99.90;;;;;;5052187;28;20122;-76
2022/07/21 08:38:04;;;;;;;21.40;18.15;;;21.50;99.90;;;;;;5052322;28;20627;-77
2022/07/21 08:40:35;;;;;;;20.02;16.40;;;21.50;99.90;;;;;;5053062;28;20049;-77
2022/07/21 08:43:04;;;;;;;18.98;16.85;;;21.50;99.90;;;;;;5051899;28;20047;-77
2022/07/21 08:45:31;;;;;;;22.60;17.80;;;21.60;99.90;;;;;;5051563;28;20076;-76
2022/07/21 08:47:59;;;;;;;21.70;18.10;;;21.60;99.90;;;;;;5051591;28;20398;-77
2022/07/21 08:50:28;;;;;;;22.60;19.30;;;21.80;99.90;;;;;;5042580;28;20049;-75
2022/07/21 08:52:55;;;;;;;24.17;18.92;;;21.90;99.90;;;;;;5050801;28;20053;-76
2022/07/21 08:55:22;;;;;;;23.17;19.60;;;22.00;99.90;;;;;;5050593;28;20057;-75
2022/07/21 08:57:49;;;;;;;22.33;18.70;;;22.00;99.90;;;;;;5051080;28;20067;-75
2022/07/21 09:00:18;;;;;;;25.90;19.00;;;22.10;99.90;;;;;;5049038;28;20060;-75
2022/07/21 09:02:44;;;;;;;22.88;19.27;;;22.20;99.90;;;;;;5051142;28;20042;-76
2022/07/21 09:05:11;;;;;;;23.92;18.38;;;22.30;99.90;;;;;;5051430;28;20056;-75
2022/07/21 09:07:57;;;;;;;26.27;21.70;;;22.20;99.90;;;;;;5049801;28;20056;-73
2022/07/21 09:10:29;;;;;;;26.65;21.83;;;22.20;99.90;;;;;;5050543;28;20049;-76
2022/07/21 09:12:59;;;;;;;26.80;22.35;;;22.00;99.90;;;;;;5052714;28;20083;-76
2022/07/21 09:15:31;;;;;;;26.00;21.00;;;21.90;99.90;;;;;;5051569;28;20053;-75
2022/07/21 09:18:07;;;;;;;27.05;22.48;;;21.80;99.90;;;;;;5051346;28;20060;-76
2022/07/21 09:20:35;;;;;;;25.98;22.33;;;21.90;99.90;;;;;;5051280;28;20175;-76
2022/07/21 09:23:03;;;;;;;28.65;22.85;;;21.90;99.90;;;;;;5051218;28;20052;-75
2022/07/21 09:25:35;;;;;;;28.00;23.70;;;21.90;99.90;;;;;;5050878;28;20064;-75
2022/07/21 09:28:18;;;;;;;32.33;24.08;;;22.00;99.90;;;;;;5029473;28;20061;-76
2022/07/21 09:30:56;;;;;;;29.10;24.70;;;22.00;99.90;;;;;;5050632;28;20053;-77
2022/07/21 09:33:25;;;;;;;30.88;25.23;;;22.10;99.90;;;;;;5052068;28;20056;-76
2022/07/21 09:35:54;;;;;;;35.58;26.45;;;22.10;99.90;;;;;;5051632;28;20064;-76
2022/07/21 09:38:21;;;;;;;31.83;25.35;;;22.20;99.90;;;;;;5051031;28;20053;-76
2022/07/21 09:40:48;;;;;;;30.83;24.73;;;22.20;99.90;;;;;;5051592;28;20053;-76
2022/07/21 09:43:29;;;;;;;32.45;25.77;;;22.30;99.90;;;;;;5052681;28;20456;-76
2022/07/21 09:46:01;;;;;;;32.30;24.90;;;22.40;99.90;;;;;;5054394;28;20107;-75
2022/07/21 09:48:36;;;;;;;32.75;26.60;;;22.50;99.90;;;;;;5032591;28;20071;-76
2022/07/21 09:51:26;;;;;;;32.20;26.67;;;22.60;99.90;;;;;;5051920;28;20056;-76
2022/07/21 09:53:55;;;;;;;33.10;27.42;;;22.70;99.90;;;;;;5050513;28;20049;-76
2022/07/21 09:56:24;;;;;;;32.80;27.38;;;22.70;99.90;;;;;;5050538;28;20044;-76
2022/07/21 09:58:53;;;;;;;37.95;27.05;;;22.70;99.90;;;;;;5050635;28;20049;-76
2022/07/21 10:01:22;;;;;;;37.00;28.42;;;22.70;99.90;;;;;;5067930;28;20126;-76
2022/07/21 10:03:50;;;;;;;34.85;28.17;;;22.90;99.90;;;;;;5050801;28;20053;-77
2022/07/21 10:06:20;;;;;;;37.58;29.92;;;23.10;99.90;;;;;;5051608;28;20455;-76
2022/07/21 10:08:47;;;;;;;36.83;28.40;;;23.30;99.90;;;;;;5051120;28;20408;-75
2022/07/21 10:11:14;;;;;;;36.75;29.05;;;23.70;99.90;;;;;;5051902;28;20049;-77
2022/07/21 10:13:41;;;;;;;35.35;29.85;;;24.00;99.90;;;;;;5070423;28;20045;-75
2022/07/21 10:16:11;;;;;;;33.28;27.67;;;24.20;99.90;;;;;;5056313;28;20048;-76
2022/07/21 10:18:52;;;;;;;33.90;27.48;;;24.40;99.90;;;;;;5070910;28;20057;-77
2022/07/21 10:21:30;;;;;;;34.95;27.92;;;24.40;99.90;;;;;;5055764;28;20455;-77
2022/07/21 10:23:57;;;;;;;34.25;27.58;;;24.30;99.90;;;;;;5053700;28;20234;-77
2022/07/21 10:26:24;;;;;;;32.83;26.33;;;24.40;99.90;;;;;;5055358;28;20386;-77
2022/07/21 10:28:51;;;;;;;32.17;25.30;;;24.40;99.90;;;;;;5054916;28;20095;-77
2022/07/21 10:31:20;;;;;;;31.88;25.20;;;24.40;99.90;;;;;;5054242;28;20508;-76
2022/07/21 10:34:00;;;;;;;27.17;23.85;;;24.40;99.90;;;;;;5054439;28;20049;-76
2022/07/21 10:36:46;;;;;;;30.80;26.10;;;24.70;99.90;;;;;;5054181;28;20049;-76
2022/07/21 10:39:26;;;;;;;27.35;23.95;;;24.80;99.90;;;;;;5053225;28;20083;-76
2022/07/21 10:41:56;;;;;;;27.40;23.52;;;24.90;99.90;;;;;;5055812;28;20059;-78
2022/07/21 10:44:42;;;;;;;26.52;22.33;;;25.10;99.90;;;;;;5055347;28;20071;-76
2022/07/21 10:47:11;;;;;;;26.95;22.58;;;25.30;99.90;;;;;;5055545;28;20045;-76
2022/07/21 10:49:51;;;;;;;27.13;23.20;;;25.20;99.90;;;;;;5056053;28;20053;-76
2022/07/21 10:52:56;;;;;;;29.77;23.20;;;25.30;99.90;;;;;;5056794;28;20118;-78
2022/07/21 10:55:26;;;;;;;29.55;22.27;;;25.00;99.90;;;;;;5055303;28;20056;-76
2022/07/21 10:58:17;;;;;;;30.75;22.48;;;25.20;99.90;;;;;;5054397;28;20063;-76
2022/07/21 11:00:47;;;;;;;25.15;20.20;;;25.30;99.90;;;;;;5054826;28;20049;-76
2022/07/21 11:03:16;;;;;;;22.02;19.73;;;25.40;99.90;;;;;;5054835;28;20045;-77
2022/07/21 11:06:16;;;;;;;26.73;20.80;;;25.50;99.90;;;;;;5052334;28;20118;-77
2022/07/21 11:08:44;;;;;;;23.05;19.67;;;25.50;99.90;;;;;;5053689;28;20049;-75
2022/07/21 11:11:12;;;;;;;25.02;19.73;;;25.40;99.90;;;;;;5053728;28;20045;-76
2022/07/21 11:14:01;;;;;;;22.42;20.08;;;25.40;99.90;;;;;;5053060;28;20064;-76
2022/07/21 11:17:01;;;;;;;23.67;20.83;;;25.10;99.90;;;;;;5034432;28;20103;-77
2022/07/21 11:19:29;;;;;;;26.20;21.25;;;25.20;99.90;;;;;;5033472;28;20098;-77
2022/07/21 11:22:01;;;;;;;25.02;19.70;;;25.30;99.90;;;;;;5033386;28;20168;-76
2022/07/21 11:24:29;;;;;;;23.23;18.83;;;25.30;99.90;;;;;;5050200;28;20061;-77
2022/07/21 11:26:56;;;;;;;24.13;18.58;;;26.00;99.90;;;;;;5053099;28;20103;-76
2022/07/21 11:29:23;;;;;;;21.35;17.42;;;27.20;99.90;;;;;;5053595;28;20503;-78
2022/07/21 11:31:51;;;;;;;18.30;15.52;;;28.10;99.90;;;;;;5053532;28;20131;-77
2022/07/21 11:34:19;;;;;;;18.40;15.07;;;28.90;99.90;;;;;;5054097;28;20115;-77
2022/07/21 11:36:46;;;;;;;19.20;15.13;;;29.50;99.90;;;;;;5054423;28;20250;-76
2022/07/21 11:39:18;;;;;;;16.60;14.68;;;29.80;99.90;;;;;;5052969;28;20057;-75
2022/07/21 11:41:45;;;;;;;17.83;14.82;;;30.20;99.90;;;;;;5051830;28;20141;-75
2022/07/21 11:44:22;;;;;;;15.00;13.50;;;30.50;99.90;;;;;;5052182;28;20183;-75
2022/07/21 11:46:51;;;;;;;16.30;12.95;;;30.80;99.40;;;;;;5052469;28;20053;-75
2022/07/21 11:49:19;;;;;;;15.63;12.23;;;31.00;97.90;;;;;;5053209;28;20098;-76
2022/07/21 11:51:51;;;;;;;14.25;11.88;;;30.80;97.60;;;;;;5052376;28;20053;-76
2022/07/21 11:54:26;;;;;;;10.25;8.50;;;31.10;96.00;;;;;;5052598;28;20060;-74
2022/07/21 11:56:55;;;;;;;10.80;9.70;;;30.50;95.10;;;;;;5053791;28;20041;-76
2022/07/21 11:59:22;;;;;;;15.32;11.10;;;30.40;95.80;;;;;;5053383;28;20053;-76
2022/07/21 12:01:57;;;;;;;13.77;10.70;;;30.40;96.10;;;;;;5052248;28;20049;-76
2022/07/21 12:04:40;;;;;;;11.85;10.13;;;30.50;95.50;;;;;;5052855;28;20546;-76
2022/07/21 12:07:11;;;;;;;11.40;10.20;;;30.70;95.00;;;;;;5054002;28;20041;-76
2022/07/21 12:09:41;;;;;;;12.30;10.68;;;31.00;95.50;;;;;;5052163;28;20173;-76
2022/07/21 12:12:08;;;;;;;12.45;8.52;;;30.90;95.50;;;;;;5054168;28;20528;-75
2022/07/21 12:14:47;;;;;;;8.38;7.47;;;31.60;94.70;;;;;;5053707;28;20516;-76
2022/07/21 12:17:16;;;;;;;7.18;6.43;;;31.60;93.70;;;;;;5053524;28;20496;-75
2022/07/21 12:19:44;;;;;;;7.80;6.05;;;31.40;93.60;;;;;;5052500;28;20049;-76
2022/07/21 12:22:12;;;;;;;7.38;6.40;;;31.00;93.40;;;;;;5052443;28;20110;-75
2022/07/21 12:24:58;;;;;;;6.50;5.88;;;30.80;93.40;;;;;;5053145;28;20078;-75
2022/07/21 12:27:25;;;;;;;9.05;5.78;;;30.40;92.50;;;;;;5052521;28;20041;-76
2022/07/21 12:29:52;;;;;;;9.25;7.07;;;30.00;93.40;;;;;;5053797;28;20081;-76
2022/07/21 12:32:39;;;;;;;11.93;7.38;;;30.10;93.60;;;;;;5052009;28;20049;-77
2022/07/21 12:35:06;;;;;;;8.20;7.35;;;30.70;93.30;;;;;;5052263;28;20083;-75
2022/07/21 12:37:53;;;;;;;9.20;8.30;;;30.70;93.60;;;;;;5052597;28;20563;-75
2022/07/21 12:40:21;;;;;;;10.77;8.40;;;30.80;93.70;;;;;;5052354;28;20052;-76
2022/07/21 12:42:49;;;;;;;9.23;7.87;;;31.00;93.40;;;;;;5052725;28;20053;-76